TW-0029 weather

Taoyuan Armed Forces General Hospital Helipad
Taoyuan, Taoyuan County, Taiwan

Public forecast

Using degrees Celsius for public forecast. Weather courtesy of forecast.io.

METAR (pilot weather report)

Closest report is Taiwan Taoyuan International Airport, 12.1 nm (22.4 km) N. Retrieved 2019/07/17 05:30 UTC (21 minutes ago):

RCTP 170530Z 06020KT 9999 FEW020 SCT030 35/25 Q1000 WS ALL RWY NOSIG RMK A2953

TAF (pilot weather forecast)

Forecast is more than 12 hours old.

Closest forecast is Taiwan Taoyuan International Airport, 12.1 nm (22.4 km) N. Retrieved 2019/07/16 00:00 UTC (1 day ago):

TAF RCTP 162300Z 1700/1806 08018KT 9999 FEW020 BKN032 TEMPO 1704/1710 07022G32KT FEW012 BKN022 BKN035 TEMPO 1710/1716 08024G36KT 4000 SHRA SCT008 FEW012CB BKN018 BKN030 BECMG 1716/1718 08023KT TEMPO 1718/1724 05025G38KT 4000 SHRA SCT008 FEW010CB BKN015 BKN030 TEMPO 1800/1806 02020G30KT 3000 SHRA SCT006 FEW008CB BKN012 BKN025